If you wish to contribute or participate in the discussions about articles you are invited to join SKYbrary as a registered user

 Actions

Minami-Daito Airport

From SKYbrary Wiki

ROMD
Airport
ICAO: ROMD – IATA: MMD
Summary
Name Minami-Daito Airport
Region Asia and Pacific
Territory Japan JP.gif
Location Minamidaito, Okinawa Prefecture
Serving Minamidaito
Elevation 48.463 m
159 ft48.463 m
Coordinates 25° 50' 45.60" N, 131° 15' 55.51" E
Runways
Designator Length Width Surface ROPS
2/20 1500 m4,921.26 ft
45 m147.638 ft
ASP /


METAR
Observation ROMD 241800Z AUTO 14004KT 9000 -RA FEW003 SCT160 BKN170 //////CB 24/24 Q1012
Station Minamidaitojima
Date/Time 24 June 2019 18:00:00
Wind direction 140°
Wind speed 04 kts
Lowest cloud amount few clouds
Temperature 24°C
Dew point 24°C
Humidity 100%
QNH 1012 hPa
Weather condition n/a

Minamidaito Airport is an airport in Minamidaitō, Shimajiri District, Okinawa Prefecture, Japan.

Climatology

Humid Sub-tropical climate (Köppen climate classification Cfa)

Maps

Terrain

Loading map...

Airport Layout

Loading map...


Accidents & Serious Incidents at or in vicinity of ROMD

None on SKYbrary